UAL1231 OIIE-LTAC
Flight info
| Callsign | UAL1231 |
|---|---|
| Flight time | 2h 36m |
| Altitude | 32000 |
| Route | PAROT G208 ZAJ/N0421F280 G208 GETOB/N0445F320 G208 ALRAM/N0453F340 UT888 SIV UL615 GURBU |
| Aircraft | B739/M-SDE2E3FGHIRWXY/LB1 |
Departure
| Time | 2026-05-07 21:16 |
|---|---|
| Airport | Imam Khomeini International Airport (OIIE) |
Arrival
| Time | 2026-05-07 23:52 |
|---|---|
| Airport | Esenboğa International Airport (LTAC) |
| Time | Latitude | Longitude | Altitude | Speed | Heading |
|---|---|---|---|---|---|
| 2026-05-07 20:47 | 35.40928 | 51.15832 | 3252 ft | 0 kts | 199° |
| 2026-05-07 21:07 | 35.40929 | 51.15832 | 3252 ft | 2 kts | 199° |
| 2026-05-07 21:07 | 35.40952 | 51.15843 | 3252 ft | 4 kts | 201° |
| 2026-05-07 21:07 | 35.40978 | 51.15852 | 3250 ft | 4 kts | 190° |
| 2026-05-07 21:08 | 35.41005 | 51.15855 | 3250 ft | 4 kts | 179° |
| 2026-05-07 21:08 | 35.41021 | 51.15855 | 3253 ft | 1 kts | 178° |
| 2026-05-07 21:08 | 35.41023 | 51.15855 | 3253 ft | 0 kts | 178° |
| 2026-05-07 21:11 | 35.41020 | 51.15856 | 3253 ft | 1 kts | 165° |
| 2026-05-07 21:11 | 35.40994 | 51.15911 | 3252 ft | 0 kts | 90° |
| 2026-05-07 21:12 | 35.40994 | 51.15924 | 3252 ft | 6 kts | 91° |
| 2026-05-07 21:12 | 35.40974 | 51.16014 | 3250 ft | 13 kts | 106° |
| 2026-05-07 21:12 | 35.41019 | 51.16092 | 3250 ft | 12 kts | 28° |
| 2026-05-07 21:12 | 35.41097 | 51.16130 | 3251 ft | 12 kts | 33° |
| 2026-05-07 21:13 | 35.41117 | 51.16219 | 3250 ft | 12 kts | 102° |
| 2026-05-07 21:13 | 35.41093 | 51.16311 | 3250 ft | 11 kts | 109° |
| 2026-05-07 21:13 | 35.41069 | 51.16402 | 3249 ft | 11 kts | 102° |
| 2026-05-07 21:13 | 35.41092 | 51.16485 | 3248 ft | 11 kts | 35° |
| 2026-05-07 21:14 | 35.41161 | 51.16519 | 3248 ft | 11 kts | 18° |
| 2026-05-07 21:14 | 35.41229 | 51.16546 | 3246 ft | 10 kts | 18° |
| 2026-05-07 21:14 | 35.41297 | 51.16565 | 3249 ft | 10 kts | 346° |
| 2026-05-07 21:14 | 35.41331 | 51.16522 | 3250 ft | 0 kts | 291° |
| 2026-05-07 21:15 | 35.41365 | 51.16399 | 3249 ft | 48 kts | 289° |
| 2026-05-07 21:15 | 35.41551 | 51.15733 | 3256 ft | 115 kts | 289° |
| 2026-05-07 21:15 | 35.41868 | 51.14593 | 3268 ft | 166 kts | 289° |
| 2026-05-07 21:16 | 35.42304 | 51.13113 | 3482 ft | 195 kts | 289° |
| 2026-05-07 21:16 | 35.42740 | 51.11481 | 4000 ft | 213 kts | 292° |
| 2026-05-07 21:16 | 35.43198 | 51.09620 | 4261 ft | 245 kts | 271° |
| 2026-05-07 21:16 | 35.42639 | 51.07630 | 4949 ft | 259 kts | 233° |
| 2026-05-07 21:17 | 35.41128 | 51.06328 | 5538 ft | 275 kts | 197° |
| 2026-05-07 21:17 | 35.39215 | 51.06304 | 6271 ft | 283 kts | 163° |
| 2026-05-07 21:17 | 35.37590 | 51.07608 | 7096 ft | 284 kts | 130° |
| 2026-05-07 21:17 | 35.36758 | 51.09815 | 7729 ft | 294 kts | 98° |
| 2026-05-07 21:18 | 35.37005 | 51.12314 | 8326 ft | 303 kts | 66° |
| 2026-05-07 21:18 | 35.38298 | 51.14341 | 8929 ft | 307 kts | 33° |
| 2026-05-07 21:18 | 35.40226 | 51.15281 | 9540 ft | 305 kts | 5° |
| 2026-05-07 21:18 | 35.42308 | 51.15867 | 10169 ft | 314 kts | 21° |
| 2026-05-07 21:19 | 35.44384 | 51.16889 | 10415 ft | 332 kts | 14° |
| 2026-05-07 21:19 | 35.46577 | 51.18022 | 10556 ft | 356 kts | 35° |
| 2026-05-07 21:19 | 35.48286 | 51.20318 | 10724 ft | 375 kts | 57° |
| 2026-05-07 21:19 | 35.49793 | 51.23012 | 11013 ft | 389 kts | 51° |
| 2026-05-07 21:20 | 35.51881 | 51.25116 | 11442 ft | 393 kts | 23° |
| 2026-05-07 21:20 | 35.54502 | 51.25914 | 12060 ft | 388 kts | 357° |
| 2026-05-07 21:20 | 35.57106 | 51.25320 | 12637 ft | 380 kts | 331° |
| 2026-05-07 21:20 | 35.59207 | 51.23475 | 13233 ft | 369 kts | 306° |
| 2026-05-07 21:21 | 35.60405 | 51.20779 | 13853 ft | 357 kts | 281° |
| 2026-05-07 21:21 | 35.60765 | 51.17786 | 14432 ft | 354 kts | 271° |
| 2026-05-07 21:21 | 35.60926 | 51.14752 | 14943 ft | 357 kts | 270° |
| 2026-05-07 21:21 | 35.61075 | 51.11696 | 15494 ft | 360 kts | 270° |
| 2026-05-07 21:22 | 35.61256 | 51.08618 | 16072 ft | 362 kts | 271° |
| 2026-05-07 21:22 | 35.61486 | 51.05533 | 16648 ft | 364 kts | 272° |
| 2026-05-07 21:22 | 35.61770 | 51.02435 | 17210 ft | 366 kts | 273° |
| 2026-05-07 21:22 | 35.62114 | 50.99319 | 17720 ft | 370 kts | 274° |
| 2026-05-07 21:23 | 35.62517 | 50.96187 | 18264 ft | 372 kts | 275° |
| 2026-05-07 21:23 | 35.62982 | 50.93051 | 18740 ft | 375 kts | 276° |
| 2026-05-07 21:23 | 35.63510 | 50.89894 | 19194 ft | 378 kts | 277° |
| 2026-05-07 21:23 | 35.64141 | 50.86737 | 19637 ft | 383 kts | 282° |
| 2026-05-07 21:24 | 35.65047 | 50.83628 | 20101 ft | 390 kts | 288° |
| 2026-05-07 21:24 | 35.66254 | 50.80626 | 20571 ft | 396 kts | 293° |
| 2026-05-07 21:24 | 35.67707 | 50.77718 | 21038 ft | 402 kts | 297° |
| 2026-05-07 21:24 | 35.69326 | 50.74888 | 21481 ft | 406 kts | 300° |
| 2026-05-07 21:25 | 35.71045 | 50.72109 | 21934 ft | 410 kts | 301° |
| 2026-05-07 21:25 | 35.72825 | 50.69341 | 22332 ft | 414 kts | 302° |
| 2026-05-07 21:25 | 35.74637 | 50.66572 | 22736 ft | 417 kts | 302° |
| 2026-05-07 21:25 | 35.76467 | 50.63788 | 23147 ft | 420 kts | 302° |
| 2026-05-07 21:26 | 35.78284 | 50.61019 | 23507 ft | 423 kts | 302° |
| 2026-05-07 21:26 | 35.80136 | 50.58189 | 23880 ft | 426 kts | 302° |
| 2026-05-07 21:26 | 35.81990 | 50.55350 | 24290 ft | 426 kts | 301° |
| 2026-05-07 21:26 | 35.83846 | 50.52501 | 24657 ft | 427 kts | 301° |
| 2026-05-07 21:27 | 35.85137 | 50.50514 | 24890 ft | 429 kts | 301° |
| 2026-05-07 21:27 | 35.87004 | 50.47637 | 25209 ft | 431 kts | 300° |
| 2026-05-07 21:27 | 35.88881 | 50.44741 | 25546 ft | 433 kts | 300° |
| 2026-05-07 21:27 | 35.90766 | 50.41830 | 25862 ft | 435 kts | 300° |
| 2026-05-07 21:28 | 35.92667 | 50.38891 | 26057 ft | 441 kts | 300° |
| 2026-05-07 21:28 | 35.94581 | 50.35928 | 26320 ft | 444 kts | 300° |
| 2026-05-07 21:28 | 35.96509 | 50.32946 | 26667 ft | 445 kts | 300° |
| 2026-05-07 21:28 | 35.98443 | 50.29955 | 26990 ft | 446 kts | 299° |
| 2026-05-07 21:29 | 36.00382 | 50.26950 | 27298 ft | 448 kts | 299° |
| 2026-05-07 21:29 | 36.02325 | 50.23935 | 27588 ft | 450 kts | 299° |
| 2026-05-07 21:29 | 36.04279 | 50.20902 | 27901 ft | 452 kts | 298° |
| 2026-05-07 21:29 | 36.06232 | 50.17867 | 28261 ft | 451 kts | 298° |
| 2026-05-07 21:30 | 36.08190 | 50.14823 | 28589 ft | 453 kts | 298° |
| 2026-05-07 21:30 | 36.10144 | 50.11783 | 28990 ft | 451 kts | 298° |
| 2026-05-07 21:30 | 36.12093 | 50.08748 | 29452 ft | 449 kts | 297° |
| 2026-05-07 21:30 | 36.14030 | 50.05727 | 29929 ft | 447 kts | 297° |
| 2026-05-07 21:31 | 36.15961 | 50.02714 | 30345 ft | 446 kts | 297° |
| 2026-05-07 21:31 | 36.17886 | 49.99705 | 30727 ft | 445 kts | 297° |
| 2026-05-07 21:31 | 36.19675 | 49.96635 | 31092 ft | 431 kts | 288° |
| 2026-05-07 21:31 | 36.20992 | 49.93361 | 31398 ft | 423 kts | 284° |
| 2026-05-07 21:32 | 36.22192 | 49.90033 | 31717 ft | 421 kts | 283° |
| 2026-05-07 21:32 | 36.23357 | 49.86718 | 32067 ft | 420 kts | 282° |
| 2026-05-07 21:32 | 36.25703 | 49.80110 | 32098 ft | 418 kts | 283° |
| 2026-05-07 21:33 | 36.28062 | 49.73659 | 32092 ft | 407 kts | 283° |
| 2026-05-07 21:33 | 36.30408 | 49.67273 | 32093 ft | 407 kts | 283° |
| 2026-05-07 21:34 | 36.32753 | 49.60891 | 32096 ft | 407 kts | 283° |
| 2026-05-07 21:34 | 36.35098 | 49.54501 | 32107 ft | 407 kts | 283° |
| 2026-05-07 21:35 | 36.37442 | 49.48104 | 32105 ft | 408 kts | 283° |
| 2026-05-07 21:35 | 36.39790 | 49.41680 | 32100 ft | 410 kts | 283° |
| 2026-05-07 21:36 | 36.42145 | 49.35231 | 32107 ft | 410 kts | 284° |
| 2026-05-07 21:36 | 36.44498 | 49.28770 | 32110 ft | 412 kts | 284° |
| 2026-05-07 21:37 | 36.46859 | 49.22276 | 32098 ft | 412 kts | 284° |
| 2026-05-07 21:37 | 36.49218 | 49.15775 | 32091 ft | 412 kts | 284° |
| 2026-05-07 21:38 | 36.51555 | 49.09319 | 32087 ft | 412 kts | 284° |
| 2026-05-07 21:38 | 36.53899 | 49.02830 | 32095 ft | 410 kts | 284° |
| 2026-05-07 21:39 | 36.56228 | 48.96383 | 32057 ft | 405 kts | 284° |
| 2026-05-07 21:39 | 36.58482 | 48.90003 | 32088 ft | 403 kts | 284° |
| 2026-05-07 21:40 | 36.60797 | 48.83642 | 32127 ft | 405 kts | 284° |
| 2026-05-07 21:40 | 36.63105 | 48.77208 | 32100 ft | 409 kts | 284° |
| 2026-05-07 21:41 | 36.65426 | 48.70709 | 32083 ft | 412 kts | 284° |
| 2026-05-07 21:41 | 36.67758 | 48.64173 | 32087 ft | 414 kts | 284° |
| 2026-05-07 21:42 | 36.70094 | 48.57613 | 32093 ft | 415 kts | 284° |
| 2026-05-07 21:42 | 36.72431 | 48.51039 | 32089 ft | 414 kts | 284° |
| 2026-05-07 21:43 | 36.74753 | 48.44489 | 32073 ft | 413 kts | 284° |
| 2026-05-07 21:43 | 36.77064 | 48.37958 | 32076 ft | 410 kts | 284° |
| 2026-05-07 21:44 | 36.79213 | 48.31459 | 32084 ft | 405 kts | 281° |
| 2026-05-07 21:44 | 36.81133 | 48.24831 | 32068 ft | 403 kts | 280° |
| 2026-05-07 21:45 | 36.83002 | 48.18301 | 32076 ft | 402 kts | 280° |
| 2026-05-07 21:45 | 36.84895 | 48.11754 | 32070 ft | 400 kts | 280° |
| 2026-05-07 21:46 | 36.86793 | 48.05217 | 32082 ft | 400 kts | 281° |
| 2026-05-07 21:46 | 36.88691 | 47.98673 | 32083 ft | 402 kts | 281° |
| 2026-05-07 21:47 | 36.90598 | 47.92086 | 32086 ft | 404 kts | 281° |
| 2026-05-07 21:47 | 36.92512 | 47.85459 | 32112 ft | 407 kts | 281° |
| 2026-05-07 21:48 | 36.94436 | 47.78785 | 32110 ft | 408 kts | 281° |
| 2026-05-07 21:48 | 36.96357 | 47.72106 | 32089 ft | 408 kts | 281° |
| 2026-05-07 21:49 | 36.98275 | 47.65425 | 32072 ft | 408 kts | 281° |
| 2026-05-07 21:49 | 37.00183 | 47.58755 | 32097 ft | 407 kts | 281° |
| 2026-05-07 21:50 | 37.02082 | 47.52100 | 32097 ft | 406 kts | 281° |
| 2026-05-07 21:50 | 37.03961 | 47.45499 | 32101 ft | 405 kts | 281° |
| 2026-05-07 21:51 | 37.05850 | 47.38852 | 32106 ft | 405 kts | 281° |
| 2026-05-07 21:51 | 37.07731 | 47.32220 | 32116 ft | 404 kts | 281° |
| 2026-05-07 21:52 | 37.09613 | 47.25584 | 32113 ft | 404 kts | 281° |
| 2026-05-07 21:52 | 37.11494 | 47.18936 | 32122 ft | 405 kts | 281° |
| 2026-05-07 21:53 | 37.13376 | 47.12270 | 32125 ft | 406 kts | 281° |
| 2026-05-07 21:53 | 37.15260 | 47.05577 | 32134 ft | 407 kts | 282° |
| 2026-05-07 21:54 | 37.17144 | 46.98868 | 32131 ft | 408 kts | 282° |
| 2026-05-07 21:54 | 37.18710 | 46.93281 | 32122 ft | 409 kts | 282° |
| 2026-05-07 21:55 | 37.20596 | 46.86536 | 32132 ft | 410 kts | 282° |
| 2026-05-07 21:55 | 37.22788 | 46.78669 | 32145 ft | 411 kts | 282° |
| 2026-05-07 21:56 | 37.24367 | 46.72991 | 32140 ft | 412 kts | 282° |
| 2026-05-07 21:56 | 37.26254 | 46.66187 | 32146 ft | 413 kts | 282° |
| 2026-05-07 21:57 | 37.28137 | 46.59381 | 32134 ft | 413 kts | 282° |
| 2026-05-07 21:57 | 37.30015 | 46.52574 | 32143 ft | 413 kts | 281° |
| 2026-05-07 21:58 | 37.31878 | 46.45806 | 32114 ft | 412 kts | 281° |
| 2026-05-07 21:58 | 37.33746 | 46.39005 | 32098 ft | 411 kts | 281° |
| 2026-05-07 21:59 | 37.35603 | 46.32223 | 32089 ft | 409 kts | 281° |
| 2026-05-07 21:59 | 37.37450 | 46.25460 | 32087 ft | 409 kts | 281° |
| 2026-05-07 22:00 | 37.39288 | 46.18708 | 32075 ft | 408 kts | 281° |
| 2026-05-07 22:00 | 37.41122 | 46.11959 | 32072 ft | 407 kts | 281° |
| 2026-05-07 22:01 | 37.42946 | 46.05226 | 32085 ft | 406 kts | 281° |
| 2026-05-07 22:01 | 37.44764 | 45.98499 | 32086 ft | 406 kts | 281° |
| 2026-05-07 22:02 | 37.46578 | 45.91769 | 32095 ft | 406 kts | 281° |
| 2026-05-07 22:02 | 37.48376 | 45.85084 | 32084 ft | 406 kts | 281° |
| 2026-05-07 22:03 | 37.50180 | 45.78357 | 32086 ft | 405 kts | 280° |
| 2026-05-07 22:03 | 37.51978 | 45.71635 | 32078 ft | 405 kts | 280° |
| 2026-05-07 22:04 | 37.53775 | 45.64910 | 32074 ft | 405 kts | 280° |
| 2026-05-07 22:04 | 37.55571 | 45.58184 | 32063 ft | 405 kts | 280° |
| 2026-05-07 22:05 | 37.57365 | 45.51449 | 32069 ft | 405 kts | 280° |
| 2026-05-07 22:05 | 37.59153 | 45.44711 | 32074 ft | 405 kts | 280° |
| 2026-05-07 22:06 | 37.60936 | 45.37970 | 32081 ft | 405 kts | 280° |
| 2026-05-07 22:06 | 37.62715 | 45.31222 | 32098 ft | 406 kts | 280° |
| 2026-05-07 22:07 | 37.64494 | 45.24462 | 32098 ft | 406 kts | 280° |
| 2026-05-07 22:07 | 37.66269 | 45.17699 | 32110 ft | 407 kts | 280° |
| 2026-05-07 22:08 | 37.68041 | 45.10919 | 32107 ft | 406 kts | 279° |
| 2026-05-07 22:08 | 37.68973 | 45.04062 | 32109 ft | 391 kts | 266° |
| 2026-05-07 22:09 | 37.69251 | 44.97238 | 32094 ft | 392 kts | 266° |
| 2026-05-07 22:09 | 37.69551 | 44.90371 | 32098 ft | 392 kts | 266° |
| 2026-05-07 22:10 | 37.69865 | 44.83477 | 32115 ft | 394 kts | 266° |
| 2026-05-07 22:10 | 37.70180 | 44.76570 | 32121 ft | 394 kts | 266° |
| 2026-05-07 22:11 | 37.70492 | 44.69669 | 32122 ft | 393 kts | 266° |
| 2026-05-07 22:11 | 37.71042 | 44.62777 | 32146 ft | 401 kts | 274° |
| 2026-05-07 22:12 | 37.72896 | 44.56022 | 32144 ft | 411 kts | 284° |
| 2026-05-07 22:12 | 37.75111 | 44.49345 | 32152 ft | 412 kts | 284° |
| 2026-05-07 22:13 | 37.77310 | 44.42659 | 32135 ft | 412 kts | 283° |
| 2026-05-07 22:13 | 37.79483 | 44.35977 | 32154 ft | 410 kts | 283° |
| 2026-05-07 22:14 | 37.81637 | 44.29316 | 32173 ft | 409 kts | 283° |
| 2026-05-07 22:14 | 37.83782 | 44.22661 | 32163 ft | 409 kts | 283° |
| 2026-05-07 22:15 | 37.85922 | 44.16002 | 32172 ft | 409 kts | 283° |
| 2026-05-07 22:15 | 37.88063 | 44.09325 | 32174 ft | 409 kts | 283° |
| 2026-05-07 22:16 | 37.90198 | 44.02656 | 32194 ft | 408 kts | 283° |
| 2026-05-07 22:16 | 37.92326 | 43.95992 | 32179 ft | 408 kts | 283° |
| 2026-05-07 22:17 | 37.94455 | 43.89306 | 32181 ft | 410 kts | 283° |
| 2026-05-07 22:17 | 37.96592 | 43.82583 | 32190 ft | 411 kts | 283° |
| 2026-05-07 22:18 | 37.99792 | 43.72477 | 32200 ft | 413 kts | 283° |
| 2026-05-07 22:19 | 38.01917 | 43.65754 | 32204 ft | 414 kts | 283° |
| 2026-05-07 22:19 | 38.04057 | 43.58967 | 32193 ft | 415 kts | 283° |
| 2026-05-07 22:20 | 38.06196 | 43.52165 | 32225 ft | 416 kts | 284° |
| 2026-05-07 22:20 | 38.08339 | 43.45331 | 32189 ft | 417 kts | 284° |
| 2026-05-07 22:21 | 38.10477 | 43.38502 | 32190 ft | 417 kts | 284° |
| 2026-05-07 22:21 | 38.12450 | 43.31602 | 32188 ft | 415 kts | 281° |
| 2026-05-07 22:22 | 38.14204 | 43.24625 | 32190 ft | 415 kts | 281° |
| 2026-05-07 22:22 | 38.15947 | 43.17637 | 32172 ft | 414 kts | 281° |
| 2026-05-07 22:23 | 38.17705 | 43.10666 | 32182 ft | 414 kts | 282° |
| 2026-05-07 22:23 | 38.19473 | 43.03686 | 32191 ft | 415 kts | 282° |
| 2026-05-07 22:24 | 38.21242 | 42.96692 | 32182 ft | 416 kts | 283° |
| 2026-05-07 22:24 | 38.22997 | 42.89744 | 32179 ft | 415 kts | 283° |
| 2026-05-07 22:25 | 38.24755 | 42.82761 | 32184 ft | 414 kts | 282° |
| 2026-05-07 22:25 | 38.26510 | 42.75768 | 32166 ft | 415 kts | 282° |
| 2026-05-07 22:26 | 38.28263 | 42.68763 | 32183 ft | 416 kts | 282° |
| 2026-05-07 22:26 | 38.30014 | 42.61741 | 32165 ft | 417 kts | 282° |
| 2026-05-07 22:27 | 38.31767 | 42.54696 | 32164 ft | 417 kts | 282° |
| 2026-05-07 22:27 | 38.33516 | 42.47641 | 32175 ft | 418 kts | 282° |
| 2026-05-07 22:28 | 38.35266 | 42.40583 | 32184 ft | 418 kts | 283° |
| 2026-05-07 22:28 | 38.37012 | 42.33495 | 32163 ft | 420 kts | 284° |
| 2026-05-07 22:29 | 38.38758 | 42.26393 | 32157 ft | 420 kts | 284° |
| 2026-05-07 22:29 | 38.40501 | 42.19289 | 32160 ft | 419 kts | 284° |
| 2026-05-07 22:30 | 38.42233 | 42.12204 | 32171 ft | 418 kts | 285° |
| 2026-05-07 22:30 | 38.43959 | 42.05125 | 32169 ft | 417 kts | 285° |
| 2026-05-07 22:31 | 38.45673 | 41.98069 | 32174 ft | 416 kts | 285° |
| 2026-05-07 22:31 | 38.47384 | 41.91010 | 32171 ft | 416 kts | 285° |
| 2026-05-07 22:32 | 38.49086 | 41.83964 | 32177 ft | 415 kts | 285° |
| 2026-05-07 22:32 | 38.50783 | 41.76921 | 32168 ft | 415 kts | 285° |
| 2026-05-07 22:33 | 38.52463 | 41.69926 | 32164 ft | 414 kts | 285° |
| 2026-05-07 22:33 | 38.54146 | 41.62900 | 32170 ft | 413 kts | 285° |
| 2026-05-07 22:34 | 38.55821 | 41.55882 | 32176 ft | 413 kts | 286° |
| 2026-05-07 22:34 | 38.57494 | 41.48854 | 32164 ft | 414 kts | 286° |
| 2026-05-07 22:35 | 38.59165 | 41.41820 | 32171 ft | 414 kts | 286° |
| 2026-05-07 22:35 | 38.60946 | 41.34824 | 32159 ft | 414 kts | 288° |
| 2026-05-07 22:36 | 38.62889 | 41.27880 | 32171 ft | 414 kts | 289° |
| 2026-05-07 22:36 | 38.64830 | 41.20936 | 32167 ft | 414 kts | 289° |
| 2026-05-07 22:37 | 38.66744 | 41.13985 | 32175 ft | 414 kts | 289° |
| 2026-05-07 22:37 | 38.68642 | 41.07034 | 32168 ft | 414 kts | 288° |
| 2026-05-07 22:38 | 38.70520 | 41.00121 | 32162 ft | 414 kts | 289° |
| 2026-05-07 22:38 | 38.72406 | 40.93163 | 32170 ft | 413 kts | 289° |
| 2026-05-07 22:39 | 38.74286 | 40.86206 | 32172 ft | 413 kts | 289° |
| 2026-05-07 22:39 | 38.76161 | 40.79250 | 32175 ft | 413 kts | 289° |
| 2026-05-07 22:40 | 38.78031 | 40.72293 | 32176 ft | 413 kts | 289° |
| 2026-05-07 22:40 | 38.79896 | 40.65340 | 32185 ft | 412 kts | 289° |
| 2026-05-07 22:41 | 38.81754 | 40.58391 | 32179 ft | 412 kts | 289° |
| 2026-05-07 22:41 | 38.83605 | 40.51448 | 32180 ft | 411 kts | 289° |
| 2026-05-07 22:42 | 38.85450 | 40.44507 | 32185 ft | 410 kts | 289° |
| 2026-05-07 22:42 | 38.87287 | 40.37581 | 32181 ft | 410 kts | 289° |
| 2026-05-07 22:43 | 38.89117 | 40.30662 | 32189 ft | 409 kts | 289° |
| 2026-05-07 22:43 | 38.90634 | 40.24911 | 32186 ft | 409 kts | 289° |
| 2026-05-07 22:44 | 38.92455 | 40.17989 | 32181 ft | 409 kts | 289° |
| 2026-05-07 22:44 | 38.94274 | 40.11060 | 32183 ft | 410 kts | 289° |
| 2026-05-07 22:45 | 38.96092 | 40.04111 | 32171 ft | 410 kts | 289° |
| 2026-05-07 22:45 | 38.97903 | 39.97173 | 32177 ft | 410 kts | 289° |
| 2026-05-07 22:46 | 38.99710 | 39.90229 | 32187 ft | 410 kts | 289° |
| 2026-05-07 22:46 | 39.01511 | 39.83286 | 32183 ft | 409 kts | 289° |
| 2026-05-07 22:47 | 39.03310 | 39.76335 | 32178 ft | 409 kts | 289° |
| 2026-05-07 22:47 | 39.05103 | 39.69384 | 32181 ft | 409 kts | 289° |
| 2026-05-07 22:48 | 39.06892 | 39.62433 | 32185 ft | 409 kts | 289° |
| 2026-05-07 22:48 | 39.08678 | 39.55476 | 32182 ft | 409 kts | 289° |
| 2026-05-07 22:49 | 39.10445 | 39.48566 | 32178 ft | 409 kts | 289° |
| 2026-05-07 22:49 | 39.12219 | 39.41617 | 32170 ft | 409 kts | 289° |
| 2026-05-07 22:50 | 39.13992 | 39.34659 | 32172 ft | 409 kts | 290° |
| 2026-05-07 22:50 | 39.15873 | 39.27757 | 32186 ft | 408 kts | 291° |
| 2026-05-07 22:51 | 39.17800 | 39.20874 | 32181 ft | 408 kts | 291° |
| 2026-05-07 22:51 | 39.19719 | 39.13974 | 32178 ft | 409 kts | 291° |
| 2026-05-07 22:52 | 39.21625 | 39.07061 | 32163 ft | 409 kts | 291° |
| 2026-05-07 22:52 | 39.23520 | 39.00151 | 32173 ft | 409 kts | 291° |
| 2026-05-07 22:53 | 39.25413 | 38.93231 | 32178 ft | 409 kts | 291° |
| 2026-05-07 22:53 | 39.27303 | 38.86299 | 32181 ft | 410 kts | 291° |
| 2026-05-07 22:54 | 39.29191 | 38.79356 | 32168 ft | 410 kts | 291° |
| 2026-05-07 22:54 | 39.31074 | 38.72414 | 32179 ft | 410 kts | 291° |
| 2026-05-07 22:55 | 39.32954 | 38.65466 | 32178 ft | 409 kts | 291° |
| 2026-05-07 22:55 | 39.34825 | 38.58528 | 32160 ft | 409 kts | 291° |
| 2026-05-07 22:56 | 39.36690 | 38.51595 | 32182 ft | 408 kts | 291° |
| 2026-05-07 22:56 | 39.38533 | 38.44726 | 32184 ft | 407 kts | 291° |
| 2026-05-07 22:57 | 39.40381 | 38.37819 | 32194 ft | 406 kts | 291° |
| 2026-05-07 22:57 | 39.42220 | 38.30928 | 32198 ft | 405 kts | 291° |
| 2026-05-07 22:58 | 39.44053 | 38.24039 | 32168 ft | 405 kts | 290° |
| 2026-05-07 22:58 | 39.45880 | 38.17157 | 32187 ft | 405 kts | 291° |
| 2026-05-07 22:59 | 39.47703 | 38.10268 | 32191 ft | 405 kts | 290° |
| 2026-05-07 22:59 | 39.49523 | 38.03371 | 32192 ft | 405 kts | 290° |
| 2026-05-07 23:00 | 39.51341 | 37.96463 | 32191 ft | 406 kts | 291° |
| 2026-05-07 23:00 | 39.53159 | 37.89537 | 32204 ft | 406 kts | 290° |
| 2026-05-07 23:01 | 39.54974 | 37.82601 | 32208 ft | 407 kts | 290° |
| 2026-05-07 23:01 | 39.56791 | 37.75639 | 32216 ft | 408 kts | 290° |
| 2026-05-07 23:02 | 39.58607 | 37.68663 | 32212 ft | 408 kts | 291° |
| 2026-05-07 23:02 | 39.60417 | 37.61686 | 32202 ft | 408 kts | 290° |
| 2026-05-07 23:03 | 39.62223 | 37.54708 | 32206 ft | 408 kts | 290° |
| 2026-05-07 23:03 | 39.64022 | 37.47735 | 32221 ft | 407 kts | 290° |
| 2026-05-07 23:04 | 39.65813 | 37.40776 | 32216 ft | 406 kts | 291° |
| 2026-05-07 23:04 | 39.67596 | 37.33824 | 32226 ft | 405 kts | 290° |
| 2026-05-07 23:05 | 39.69370 | 37.26891 | 32228 ft | 404 kts | 290° |
| 2026-05-07 23:05 | 39.71126 | 37.20007 | 32243 ft | 404 kts | 290° |
| 2026-05-07 23:06 | 39.72883 | 37.13102 | 32251 ft | 403 kts | 290° |
| 2026-05-07 23:06 | 39.74640 | 37.06179 | 32259 ft | 403 kts | 290° |
| 2026-05-07 23:07 | 39.76389 | 36.99265 | 32267 ft | 402 kts | 290° |
| 2026-05-07 23:07 | 39.78131 | 36.92360 | 32264 ft | 402 kts | 290° |
| 2026-05-07 23:08 | 39.79554 | 36.85330 | 32259 ft | 403 kts | 283° |
| 2026-05-07 23:08 | 39.80494 | 36.78129 | 32262 ft | 403 kts | 283° |
| 2026-05-07 23:09 | 39.81425 | 36.70949 | 32258 ft | 403 kts | 283° |
| 2026-05-07 23:09 | 39.82385 | 36.63782 | 32260 ft | 402 kts | 283° |
| 2026-05-07 23:10 | 39.83354 | 36.56606 | 32255 ft | 402 kts | 283° |
| 2026-05-07 23:10 | 39.84320 | 36.49432 | 32239 ft | 403 kts | 283° |
| 2026-05-07 23:11 | 39.85282 | 36.42249 | 32231 ft | 403 kts | 283° |
| 2026-05-07 23:11 | 39.86245 | 36.35056 | 32238 ft | 403 kts | 284° |
| 2026-05-07 23:12 | 39.87302 | 36.28062 | 32237 ft | 403 kts | 284° |
| 2026-05-07 23:12 | 39.88327 | 36.20869 | 32236 ft | 404 kts | 283° |
| 2026-05-07 23:13 | 39.89257 | 36.13699 | 32227 ft | 405 kts | 283° |
| 2026-05-07 23:13 | 39.90204 | 36.06469 | 32209 ft | 405 kts | 283° |
| 2026-05-07 23:14 | 39.91158 | 35.99244 | 32229 ft | 405 kts | 283° |
| 2026-05-07 23:14 | 39.92110 | 35.92002 | 32230 ft | 406 kts | 283° |
| 2026-05-07 23:15 | 39.93045 | 35.84759 | 32217 ft | 406 kts | 283° |
| 2026-05-07 23:15 | 39.93974 | 35.77509 | 32228 ft | 406 kts | 283° |
| 2026-05-07 23:16 | 39.94900 | 35.70255 | 32223 ft | 406 kts | 283° |
| 2026-05-07 23:16 | 39.95823 | 35.62996 | 32217 ft | 406 kts | 283° |
| 2026-05-07 23:17 | 39.96740 | 35.55740 | 32217 ft | 405 kts | 283° |
| 2026-05-07 23:17 | 39.97652 | 35.48491 | 32201 ft | 405 kts | 283° |
| 2026-05-07 23:18 | 39.98561 | 35.41238 | 32218 ft | 405 kts | 283° |
| 2026-05-07 23:18 | 39.99454 | 35.34033 | 32206 ft | 405 kts | 283° |
| 2026-05-07 23:19 | 40.00319 | 35.26776 | 32210 ft | 405 kts | 282° |
| 2026-05-07 23:19 | 40.01174 | 35.19506 | 32182 ft | 405 kts | 283° |
| 2026-05-07 23:20 | 40.02023 | 35.12261 | 32192 ft | 404 kts | 283° |
| 2026-05-07 23:20 | 40.02867 | 35.05034 | 32211 ft | 403 kts | 283° |
| 2026-05-07 23:21 | 40.03707 | 34.97815 | 32203 ft | 402 kts | 283° |
| 2026-05-07 23:21 | 40.04544 | 34.90593 | 32204 ft | 402 kts | 283° |
| 2026-05-07 23:22 | 40.05374 | 34.83378 | 32201 ft | 402 kts | 283° |
| 2026-05-07 23:22 | 40.06198 | 34.76171 | 32198 ft | 401 kts | 283° |
| 2026-05-07 23:23 | 40.07017 | 34.68973 | 32199 ft | 401 kts | 283° |
| 2026-05-07 23:23 | 40.07831 | 34.61774 | 32194 ft | 401 kts | 283° |
| 2026-05-07 23:24 | 40.08642 | 34.54572 | 32198 ft | 401 kts | 283° |
| 2026-05-07 23:24 | 40.09449 | 34.47356 | 32180 ft | 401 kts | 283° |
| 2026-05-07 23:25 | 40.10245 | 34.40192 | 32181 ft | 401 kts | 283° |
| 2026-05-07 23:25 | 40.11043 | 34.32972 | 32178 ft | 402 kts | 283° |
| 2026-05-07 23:26 | 40.11837 | 34.25754 | 32178 ft | 402 kts | 283° |
| 2026-05-07 23:26 | 40.12626 | 34.18528 | 32184 ft | 402 kts | 283° |
| 2026-05-07 23:27 | 40.13800 | 34.07699 | 32180 ft | 401 kts | 283° |
| 2026-05-07 23:27 | 40.14564 | 34.00583 | 32161 ft | 384 kts | 283° |
| 2026-05-07 23:28 | 40.14931 | 33.97146 | 31818 ft | 378 kts | 283° |
| 2026-05-07 23:28 | 40.15311 | 33.93781 | 31413 ft | 372 kts | 285° |
| 2026-05-07 23:28 | 40.15773 | 33.90480 | 31033 ft | 367 kts | 285° |
| 2026-05-07 23:28 | 40.16244 | 33.87216 | 30596 ft | 364 kts | 285° |
| 2026-05-07 23:29 | 40.16703 | 33.83971 | 30154 ft | 362 kts | 285° |
| 2026-05-07 23:29 | 40.17108 | 33.80733 | 29660 ft | 360 kts | 283° |
| 2026-05-07 23:29 | 40.17415 | 33.77498 | 29221 ft | 357 kts | 282° |
| 2026-05-07 23:29 | 40.17709 | 33.74293 | 28783 ft | 353 kts | 282° |
| 2026-05-07 23:30 | 40.18010 | 33.71120 | 28361 ft | 349 kts | 282° |
| 2026-05-07 23:30 | 40.18142 | 33.67954 | 27911 ft | 353 kts | 268° |
| 2026-05-07 23:30 | 40.17462 | 33.64844 | 27523 ft | 361 kts | 250° |
| 2026-05-07 23:30 | 40.16106 | 33.62051 | 27111 ft | 369 kts | 233° |
| 2026-05-07 23:31 | 40.14145 | 33.59843 | 26727 ft | 374 kts | 223° |
| 2026-05-07 23:31 | 40.12034 | 33.57855 | 26320 ft | 373 kts | 221° |
| 2026-05-07 23:31 | 40.09922 | 33.55901 | 25939 ft | 371 kts | 221° |
| 2026-05-07 23:31 | 40.07835 | 33.53935 | 25541 ft | 369 kts | 222° |
| 2026-05-07 23:32 | 40.05765 | 33.51958 | 25150 ft | 368 kts | 222° |
| 2026-05-07 23:32 | 40.03708 | 33.49982 | 24758 ft | 366 kts | 222° |
| 2026-05-07 23:32 | 40.01662 | 33.48019 | 24369 ft | 365 kts | 223° |
| 2026-05-07 23:32 | 39.99611 | 33.46055 | 23957 ft | 365 kts | 222° |
| 2026-05-07 23:33 | 39.98252 | 33.44754 | 23538 ft | 369 kts | 222° |
| 2026-05-07 23:33 | 39.95514 | 33.42135 | 22895 ft | 368 kts | 222° |
| 2026-05-07 23:33 | 39.93455 | 33.40168 | 22472 ft | 365 kts | 223° |
| 2026-05-07 23:33 | 39.91723 | 33.37859 | 22070 ft | 350 kts | 245° |
| 2026-05-07 23:34 | 39.90832 | 33.35019 | 21717 ft | 333 kts | 264° |
| 2026-05-07 23:34 | 39.90678 | 33.33020 | 21445 ft | 325 kts | 276° |
| 2026-05-07 23:34 | 39.91189 | 33.29265 | 20918 ft | 315 kts | 294° |
| 2026-05-07 23:34 | 39.91812 | 33.27576 | 20655 ft | 310 kts | 304° |
| 2026-05-07 23:35 | 39.93028 | 33.25280 | 20297 ft | 307 kts | 308° |
| 2026-05-07 23:35 | 39.94316 | 33.23064 | 19910 ft | 306 kts | 309° |
| 2026-05-07 23:35 | 39.95598 | 33.20860 | 19534 ft | 305 kts | 308° |
| 2026-05-07 23:35 | 39.96873 | 33.18648 | 19159 ft | 303 kts | 308° |
| 2026-05-07 23:36 | 39.98108 | 33.16475 | 18990 ft | 295 kts | 308° |
| 2026-05-07 23:36 | 39.99303 | 33.14357 | 18874 ft | 285 kts | 308° |
| 2026-05-07 23:36 | 40.00460 | 33.12305 | 18749 ft | 276 kts | 308° |
| 2026-05-07 23:36 | 40.01759 | 33.10543 | 18621 ft | 265 kts | 328° |
| 2026-05-07 23:37 | 40.03432 | 33.09691 | 18531 ft | 256 kts | 348° |
| 2026-05-07 23:37 | 40.05212 | 33.09632 | 18215 ft | 258 kts | 5° |
| 2026-05-07 23:37 | 40.06940 | 33.10283 | 17914 ft | 264 kts | 24° |
| 2026-05-07 23:37 | 40.08478 | 33.11623 | 17621 ft | 266 kts | 31° |
| 2026-05-07 23:38 | 40.09962 | 33.13059 | 17287 ft | 265 kts | 32° |
| 2026-05-07 23:38 | 40.11440 | 33.14490 | 16982 ft | 264 kts | 32° |
| 2026-05-07 23:38 | 40.12915 | 33.15910 | 16679 ft | 263 kts | 32° |
| 2026-05-07 23:38 | 40.14391 | 33.17331 | 16366 ft | 263 kts | 32° |
| 2026-05-07 23:39 | 40.15861 | 33.18741 | 16056 ft | 262 kts | 32° |
| 2026-05-07 23:39 | 40.17332 | 33.20151 | 15747 ft | 261 kts | 32° |
| 2026-05-07 23:39 | 40.18796 | 33.21554 | 15441 ft | 261 kts | 32° |
| 2026-05-07 23:39 | 40.20260 | 33.22957 | 15136 ft | 261 kts | 32° |
| 2026-05-07 23:40 | 40.21723 | 33.24361 | 14829 ft | 261 kts | 32° |
| 2026-05-07 23:40 | 40.23186 | 33.25765 | 14525 ft | 261 kts | 32° |
| 2026-05-07 23:40 | 40.24648 | 33.27170 | 14218 ft | 261 kts | 32° |
| 2026-05-07 23:40 | 40.26112 | 33.28576 | 13896 ft | 261 kts | 33° |
| 2026-05-07 23:41 | 40.27577 | 33.29985 | 13569 ft | 261 kts | 33° |
| 2026-05-07 23:41 | 40.29043 | 33.31394 | 13236 ft | 261 kts | 33° |
| 2026-05-07 23:41 | 40.30500 | 33.32798 | 12815 ft | 265 kts | 33° |
| 2026-05-07 23:41 | 40.31979 | 33.34222 | 12507 ft | 265 kts | 33° |
| 2026-05-07 23:42 | 40.33466 | 33.35655 | 12184 ft | 265 kts | 34° |
| 2026-05-07 23:42 | 40.34948 | 33.37084 | 11868 ft | 265 kts | 34° |
| 2026-05-07 23:42 | 40.36428 | 33.38512 | 11562 ft | 264 kts | 34° |
| 2026-05-07 23:42 | 40.37955 | 33.39831 | 11287 ft | 259 kts | 19° |
| 2026-05-07 23:43 | 40.39676 | 33.40095 | 11078 ft | 245 kts | 347° |
| 2026-05-07 23:43 | 40.41181 | 33.39263 | 10794 ft | 230 kts | 321° |
| 2026-05-07 23:43 | 40.42223 | 33.37762 | 10510 ft | 219 kts | 299° |
| 2026-05-07 23:43 | 40.42693 | 33.35917 | 10259 ft | 211 kts | 276° |
| 2026-05-07 23:44 | 40.42583 | 33.34035 | 10033 ft | 207 kts | 257° |
| 2026-05-07 23:44 | 40.42010 | 33.32306 | 9765 ft | 206 kts | 237° |
| 2026-05-07 23:44 | 40.41060 | 33.30961 | 9491 ft | 196 kts | 227° |
| 2026-05-07 23:44 | 40.40090 | 33.29746 | 9256 ft | 190 kts | 227° |
| 2026-05-07 23:45 | 40.39132 | 33.28553 | 9048 ft | 190 kts | 227° |
| 2026-05-07 23:45 | 40.38168 | 33.27352 | 8840 ft | 193 kts | 226° |
| 2026-05-07 23:45 | 40.37190 | 33.26134 | 8630 ft | 194 kts | 226° |
| 2026-05-07 23:45 | 40.36216 | 33.24921 | 8390 ft | 192 kts | 226° |
| 2026-05-07 23:46 | 40.35253 | 33.23721 | 8167 ft | 190 kts | 226° |
| 2026-05-07 23:46 | 40.34297 | 33.22531 | 7954 ft | 189 kts | 226° |
| 2026-05-07 23:46 | 40.33350 | 33.21350 | 7727 ft | 187 kts | 227° |
| 2026-05-07 23:46 | 40.32410 | 33.20179 | 7510 ft | 186 kts | 226° |
| 2026-05-07 23:47 | 40.31475 | 33.19014 | 7302 ft | 185 kts | 226° |
| 2026-05-07 23:47 | 40.30558 | 33.17873 | 7099 ft | 179 kts | 226° |
| 2026-05-07 23:47 | 40.29642 | 33.16734 | 6876 ft | 181 kts | 226° |
| 2026-05-07 23:47 | 40.28742 | 33.15615 | 6665 ft | 176 kts | 226° |
| 2026-05-07 23:48 | 40.27879 | 33.14543 | 6398 ft | 166 kts | 226° |
| 2026-05-07 23:48 | 40.27038 | 33.13498 | 6208 ft | 168 kts | 226° |
| 2026-05-07 23:48 | 40.26194 | 33.12456 | 6054 ft | 166 kts | 223° |
| 2026-05-07 23:48 | 40.25273 | 33.11537 | 5882 ft | 167 kts | 218° |
| 2026-05-07 23:49 | 40.24329 | 33.10653 | 5656 ft | 168 kts | 218° |
| 2026-05-07 23:49 | 40.23378 | 33.09752 | 5433 ft | 169 kts | 218° |
| 2026-05-07 23:49 | 40.22439 | 33.08857 | 5210 ft | 166 kts | 218° |
| 2026-05-07 23:49 | 40.21511 | 33.07971 | 4998 ft | 165 kts | 217° |
| 2026-05-07 23:50 | 40.20584 | 33.07084 | 4765 ft | 165 kts | 217° |
| 2026-05-07 23:50 | 40.19656 | 33.06198 | 4528 ft | 165 kts | 217° |
| 2026-05-07 23:50 | 40.18726 | 33.05309 | 4284 ft | 168 kts | 217° |
| 2026-05-07 23:50 | 40.17787 | 33.04411 | 4050 ft | 171 kts | 216° |
| 2026-05-07 23:51 | 40.16833 | 33.03499 | 3820 ft | 169 kts | 216° |
| 2026-05-07 23:51 | 40.15890 | 33.02598 | 3600 ft | 167 kts | 216° |
| 2026-05-07 23:51 | 40.14950 | 33.01698 | 3377 ft | 167 kts | 216° |
| 2026-05-07 23:51 | 40.14015 | 33.00803 | 3176 ft | 162 kts | 216° |
| 2026-05-07 23:52 | 40.13192 | 33.00012 | 3132 ft | 124 kts | 214° |
| 2026-05-07 23:52 | 40.12665 | 32.99516 | 3120 ft | 63 kts | 216° |
| 2026-05-07 23:52 | 40.12484 | 32.99344 | 3113 ft | 1 kts | 215° |
| 2026-05-07 23:52 | 40.12466 | 32.99329 | 3112 ft | 10 kts | 213° |
| 2026-05-07 23:53 | 40.12379 | 32.99259 | 3110 ft | 16 kts | 207° |
| 2026-05-07 23:53 | 40.12268 | 32.99215 | 3106 ft | 17 kts | 190° |
| 2026-05-07 23:53 | 40.12161 | 32.99198 | 3104 ft | 8 kts | 186° |
| 2026-05-07 23:53 | 40.12156 | 32.99197 | 3104 ft | 0 kts | 185° |
| 2026-05-07 23:55 | 40.12154 | 32.99197 | 3104 ft | 1 kts | 185° |
| 2026-05-07 23:55 | 40.12121 | 32.99193 | 3104 ft | 9 kts | 185° |
| 2026-05-07 23:55 | 40.12044 | 32.99180 | 3103 ft | 12 kts | 189° |
| 2026-05-07 23:55 | 40.11966 | 32.99150 | 3102 ft | 12 kts | 205° |
| 2026-05-07 23:56 | 40.11900 | 32.99095 | 3100 ft | 11 kts | 219° |
| 2026-05-07 23:56 | 40.11834 | 32.99047 | 3098 ft | 11 kts | 180° |
| 2026-05-07 23:56 | 40.11772 | 32.99098 | 3098 ft | 11 kts | 139° |
| 2026-05-07 23:56 | 40.11705 | 32.99121 | 3098 ft | 10 kts | 197° |
| 2026-05-07 23:57 | 40.11654 | 32.99055 | 3096 ft | 11 kts | 234° |
| 2026-05-07 23:57 | 40.11608 | 32.98975 | 3094 ft | 11 kts | 229° |
| 2026-05-07 23:57 | 40.11551 | 32.98899 | 3093 ft | 12 kts | 224° |
| 2026-05-07 23:57 | 40.11489 | 32.98832 | 3092 ft | 10 kts | 218° |
| 2026-05-07 23:58 | 40.11443 | 32.98792 | 3089 ft | 6 kts | 201° |
| 2026-05-07 23:58 | 40.11416 | 32.98809 | 3091 ft | 4 kts | 90° |
| 2026-05-07 23:58 | 40.11417 | 32.98813 | 3091 ft | 0 kts | 81° |
| 2026-05-07 23:58 | 40.11420 | 32.98823 | 3092 ft | 2 kts | 69° |
| 2026-05-07 23:59 | 40.11416 | 32.98844 | 3093 ft | 2 kts | 115° |
| 2026-05-07 23:59 | 40.11404 | 32.98858 | 3091 ft | 2 kts | 145° |
| 2026-05-07 23:59 | 40.11404 | 32.98859 | 3096 ft | 0 kts | 146° |